createdAt,value
2023-10-29T00:00:19.505Z,-2.43
2023-10-29T00:03:22.963Z,-2.40
2023-10-29T00:06:26.400Z,-2.41
2023-10-29T00:09:29.801Z,-2.37
2023-10-29T00:12:33.096Z,-2.31
2023-10-29T00:15:36.537Z,-2.26
2023-10-29T00:18:39.887Z,-2.23
2023-10-29T00:21:43.254Z,-2.13
2023-10-29T00:24:46.758Z,-1.97
2023-10-29T00:27:50.232Z,-1.76
2023-10-29T00:30:57.183Z,-1.48
2023-10-29T00:34:00.589Z,-1.21
2023-10-29T00:37:04.944Z,-0.99
2023-10-29T00:40:08.940Z,-0.80
2023-10-29T00:43:18.310Z,-0.73
2023-10-29T00:46:21.918Z,-0.83
2023-10-29T00:49:25.935Z,-0.96
2023-10-29T00:52:29.665Z,-1.12
2023-10-29T00:55:33.655Z,-1.16
2023-10-29T00:58:37.853Z,-1.08
2023-10-29T01:01:41.211Z,-0.93
2023-10-29T01:04:47.249Z,-0.73
2023-10-29T01:07:50.932Z,-0.48
2023-10-29T01:10:55.098Z,-0.26
2023-10-29T01:13:58.465Z,-0.08
2023-10-29T01:17:01.872Z,0.00
2023-10-29T01:20:05.758Z,0.08
2023-10-29T01:23:09.764Z,0.05
2023-10-29T01:26:13.290Z,-0.12
2023-10-29T01:29:17.929Z,-0.26
2023-10-29T01:32:21.611Z,-0.46
2023-10-29T01:35:25.842Z,-0.52
2023-10-29T01:38:29.121Z,-0.53
2023-10-29T01:41:32.521Z,-0.49
2023-10-29T01:44:35.739Z,-0.50
2023-10-29T01:47:39.062Z,-0.43
2023-10-29T01:50:42.481Z,-0.44
2023-10-29T01:53:45.754Z,-0.33
2023-10-29T01:56:48.983Z,-0.38
2023-10-29T01:59:52.273Z,-0.41
2023-10-29T02:02:56.000Z,-0.39
2023-10-29T02:06:00.723Z,-0.37
2023-10-29T02:09:05.143Z,-0.31
2023-10-29T02:12:08.785Z,-0.27
2023-10-29T02:15:12.096Z,-0.29
2023-10-29T02:18:15.539Z,-0.22
2023-10-29T02:21:19.139Z,-0.20
2023-10-29T02:24:22.376Z,-0.20
2023-10-29T02:27:25.670Z,-0.21
2023-10-29T02:30:28.856Z,-0.12
2023-10-29T02:33:32.436Z,-0.19
2023-10-29T02:36:35.773Z,-0.14
2023-10-29T02:39:39.097Z,-0.07
2023-10-29T02:42:43.286Z,0.02
2023-10-29T02:45:46.641Z,0.03
2023-10-29T02:48:49.956Z,-0.01
2023-10-29T02:51:53.497Z,-0.06
2023-10-29T02:54:58.237Z,-0.07
2023-10-29T02:58:01.256Z,0.00
2023-10-29T03:01:09.568Z,0.02
2023-10-29T03:04:12.989Z,0.07
2023-10-29T03:07:16.325Z,0.02
2023-10-29T03:10:19.668Z,-0.02
2023-10-29T03:13:22.847Z,0.05
2023-10-29T03:16:26.069Z,0.04
2023-10-29T03:19:29.492Z,0.04
2023-10-29T03:22:36.220Z,0.20
2023-10-29T03:25:39.569Z,0.31
2023-10-29T03:28:44.105Z,0.32
2023-10-29T03:31:47.403Z,0.39
2023-10-29T03:34:50.834Z,0.33
2023-10-29T03:37:55.990Z,0.30
2023-10-29T03:40:59.364Z,0.30
2023-10-29T03:44:02.646Z,0.44
2023-10-29T03:47:06.086Z,0.55
2023-10-29T03:50:10.698Z,0.49
2023-10-29T03:53:13.943Z,0.54
2023-10-29T03:56:17.420Z,0.49
2023-10-29T03:59:20.690Z,0.56
2023-10-29T04:02:24.120Z,0.69
2023-10-29T04:05:27.800Z,0.80
2023-10-29T04:08:31.029Z,0.84
2023-10-29T04:11:34.701Z,0.92
2023-10-29T04:14:38.926Z,0.90
2023-10-29T04:17:42.254Z,0.98
2023-10-29T04:20:45.896Z,1.12
2023-10-29T04:23:49.224Z,1.14
2023-10-29T04:26:53.067Z,1.13
2023-10-29T04:29:56.604Z,1.14
2023-10-29T04:33:00.477Z,1.15
2023-10-29T04:36:04.075Z,1.25
2023-10-29T04:39:07.485Z,1.35
2023-10-29T04:42:10.792Z,1.44
2023-10-29T04:45:14.015Z,1.55
2023-10-29T04:48:18.073Z,1.55
2023-10-29T04:51:21.952Z,1.56
2023-10-29T04:54:25.181Z,1.44
2023-10-29T04:57:32.250Z,1.32
2023-10-29T05:00:35.441Z,1.31
2023-10-29T05:03:38.899Z,1.33
2023-10-29T05:06:42.273Z,1.41
2023-10-29T05:09:45.864Z,1.48
2023-10-29T05:12:49.124Z,1.52
2023-10-29T05:15:52.403Z,1.49
2023-10-29T05:18:55.640Z,1.46
2023-10-29T05:21:58.843Z,1.51
2023-10-29T05:25:04.396Z,1.56
2023-10-29T05:28:07.681Z,1.58
2023-10-29T05:31:10.924Z,1.47
2023-10-29T05:34:16.275Z,1.50
2023-10-29T05:37:19.670Z,1.61
2023-10-29T05:40:22.948Z,1.73
2023-10-29T05:43:26.161Z,1.79
2023-10-29T05:46:29.678Z,1.77
2023-10-29T05:49:32.937Z,1.81
2023-10-29T05:52:36.270Z,2.02
2023-10-29T05:55:41.400Z,1.95
2023-10-29T05:58:44.545Z,1.92
2023-10-29T06:01:47.748Z,1.97
2023-10-29T06:04:51.953Z,1.94
2023-10-29T06:07:55.202Z,1.94
2023-10-29T06:10:58.987Z,1.88
2023-10-29T06:14:03.830Z,1.83
2023-10-29T06:17:19.819Z,1.83
2023-10-29T06:20:30.631Z,1.83
2023-10-29T06:23:34.993Z,1.88
2023-10-29T06:26:39.926Z,1.99
2023-10-29T06:29:43.616Z,2.12
2023-10-29T06:32:47.856Z,2.23
2023-10-29T06:35:51.795Z,2.32
2023-10-29T06:38:55.263Z,2.37
2023-10-29T06:41:59.369Z,2.50
2023-10-29T06:45:03.927Z,2.43
2023-10-29T06:48:08.308Z,2.24
2023-10-29T06:51:12.798Z,2.21
2023-10-29T06:54:16.044Z,2.25
2023-10-29T06:57:20.122Z,2.13
2023-10-29T07:00:23.329Z,2.16
2023-10-29T07:03:27.441Z,2.24
2023-10-29T07:06:32.662Z,2.22
2023-10-29T07:09:35.889Z,2.22
2023-10-29T07:12:40.990Z,2.23
2023-10-29T07:15:45.700Z,2.25
2023-10-29T07:18:49.828Z,2.04
2023-10-29T07:21:53.158Z,1.84
2023-10-29T07:24:56.591Z,1.80
2023-10-29T07:28:00.238Z,1.81
2023-10-29T07:31:04.696Z,1.88
2023-10-29T07:34:08.144Z,1.82
2023-10-29T07:37:12.122Z,1.76
2023-10-29T07:40:15.445Z,1.76
2023-10-29T07:43:19.270Z,1.72
2023-10-29T07:46:22.549Z,1.58
2023-10-29T07:49:26.116Z,1.55
2023-10-29T07:52:29.418Z,1.53
2023-10-29T07:55:33.244Z,1.62
2023-10-29T07:58:36.947Z,1.61
2023-10-29T08:01:40.197Z,1.52
2023-10-29T08:04:43.389Z,1.36
2023-10-29T08:07:46.694Z,1.25
2023-10-29T08:10:49.978Z,1.24
2023-10-29T08:13:53.193Z,1.30
2023-10-29T08:16:56.554Z,1.26
2023-10-29T08:20:02.660Z,1.20
2023-10-29T08:23:05.945Z,1.11
2023-10-29T08:26:09.187Z,1.03
2023-10-29T08:29:14.175Z,1.00
2023-10-29T08:32:18.166Z,0.95
2023-10-29T08:35:21.425Z,0.90
2023-10-29T08:38:24.923Z,0.85
2023-10-29T08:41:28.330Z,0.81
2023-10-29T08:44:31.763Z,0.77
2023-10-29T08:47:35.855Z,0.69
2023-10-29T08:50:39.370Z,0.63
2023-10-29T08:53:42.819Z,0.53
2023-10-29T08:56:48.041Z,0.49
2023-10-29T08:59:55.060Z,0.46
2023-10-29T09:02:59.144Z,0.38
2023-10-29T09:06:05.900Z,0.30
2023-10-29T09:09:09.216Z,0.20
2023-10-29T09:12:12.540Z,0.10
2023-10-29T09:15:16.953Z,0.02
2023-10-29T09:18:20.972Z,-0.04
2023-10-29T09:21:24.438Z,-0.07
2023-10-29T09:24:27.602Z,-0.14
2023-10-29T09:27:30.786Z,-0.13
2023-10-29T09:30:34.537Z,-0.15
2023-10-29T09:33:38.167Z,-0.19
2023-10-29T09:36:41.509Z,-0.25
2023-10-29T09:39:45.607Z,-0.31
2023-10-29T09:42:57.792Z,-0.34
2023-10-29T09:46:06.828Z,-0.36
2023-10-29T09:49:10.214Z,-0.37
2023-10-29T09:52:15.444Z,-0.37
2023-10-29T09:55:23.645Z,-0.35
2023-10-29T09:58:28.149Z,-0.34
2023-10-29T10:01:33.818Z,-0.39
2023-10-29T10:04:40.956Z,-0.44
2023-10-29T10:07:44.540Z,-0.52
2023-10-29T10:10:49.110Z,-0.52
2023-10-29T10:13:52.804Z,-0.49
2023-10-29T10:17:16.250Z,-0.50
2023-10-29T10:20:24.709Z,-0.57
2023-10-29T10:23:27.943Z,-0.63
2023-10-29T10:26:36.303Z,-0.70
2023-10-29T10:29:40.231Z,-0.77
2023-10-29T10:32:44.279Z,-0.86
2023-10-29T10:36:01.870Z,-0.90
2023-10-29T10:39:05.472Z,-0.93
2023-10-29T10:42:09.743Z,-1.08
2023-10-29T10:45:17.660Z,-1.20
2023-10-29T10:48:21.361Z,-1.28
2023-10-29T10:51:24.976Z,-1.29
2023-10-29T10:54:29.000Z,-1.31
2023-10-29T10:57:34.652Z,-1.38
2023-10-29T11:00:37.912Z,-1.50
2023-10-29T11:03:41.683Z,-1.65
2023-10-29T11:06:48.711Z,-1.76
2023-10-29T11:09:53.112Z,-1.83
2023-10-29T11:12:56.548Z,-1.92
2023-10-29T11:16:03.935Z,-1.96
2023-10-29T11:19:36.433Z,-2.03
2023-10-29T11:22:49.528Z,-2.18
2023-10-29T11:26:21.301Z,-2.28
2023-10-29T11:29:43.150Z,-2.38
2023-10-29T11:32:48.036Z,-2.57
2023-10-29T11:35:51.411Z,-2.74
2023-10-29T11:38:54.660Z,-2.92
2023-10-29T11:41:58.516Z,-3.01
2023-10-29T11:45:29.898Z,-3.06
2023-10-29T11:48:33.566Z,-3.12
2023-10-29T11:51:36.785Z,-3.16
2023-10-29T11:54:40.854Z,-3.22
2023-10-29T11:57:47.157Z,-3.22
2023-10-29T12:00:50.453Z,-3.20
2023-10-29T12:03:54.239Z,-3.19
2023-10-29T12:06:58.482Z,-3.24
2023-10-29T12:10:07.974Z,-3.26
2023-10-29T12:13:11.564Z,-3.25
2023-10-29T12:16:14.981Z,-3.21
2023-10-29T12:19:18.241Z,-3.22
2023-10-29T12:22:25.645Z,-3.31
2023-10-29T12:25:29.640Z,-3.39
2023-10-29T12:28:35.197Z,-3.43
2023-10-29T12:31:38.450Z,-3.50
2023-10-29T12:34:52.366Z,-3.70
2023-10-29T12:37:55.802Z,-3.82
2023-10-29T12:41:06.713Z,-3.96
2023-10-29T12:44:19.246Z,-4.14
2023-10-29T12:47:26.214Z,-4.25
2023-10-29T12:50:29.409Z,-4.36
2023-10-29T12:53:33.751Z,-4.41
2023-10-29T12:56:52.689Z,-4.36
2023-10-29T12:59:55.970Z,-4.32
2023-10-29T13:02:59.637Z,-4.28
2023-10-29T13:06:02.999Z,-4.27
2023-10-29T13:09:09.521Z,-4.37
2023-10-29T13:12:13.627Z,-4.46
2023-10-29T13:15:17.077Z,-4.48
2023-10-29T13:18:21.196Z,-4.49
2023-10-29T13:21:28.098Z,-4.48
2023-10-29T13:24:34.717Z,-4.43
2023-10-29T13:27:39.316Z,-4.40
2023-10-29T13:30:42.550Z,-4.41
2023-10-29T13:33:47.198Z,-4.44
2023-10-29T13:36:50.112Z,-4.39
2023-10-29T13:39:53.896Z,-4.32
2023-10-29T13:42:57.234Z,-4.22
2023-10-29T13:46:04.477Z,-4.16
2023-10-29T13:49:07.700Z,-4.12
2023-10-29T13:52:11.352Z,-4.05
2023-10-29T13:55:14.688Z,-4.00
2023-10-29T13:58:18.040Z,-3.99
2023-10-29T14:01:23.502Z,-3.96
2023-10-29T14:04:26.850Z,-3.96
2023-10-29T14:07:31.984Z,-3.95
2023-10-29T14:10:35.227Z,-3.96
2023-10-29T14:13:38.676Z,-3.94
2023-10-29T14:16:43.422Z,-3.91
2023-10-29T14:19:47.341Z,-3.89
2023-10-29T14:22:50.875Z,-3.90
2023-10-29T14:25:54.052Z,-3.89
2023-10-29T14:28:57.369Z,-3.93
2023-10-29T14:32:00.670Z,-3.93
2023-10-29T14:35:04.317Z,-3.96
2023-10-29T14:38:10.749Z,-4.02
2023-10-29T14:41:19.776Z,-4.10
2023-10-29T14:44:23.573Z,-4.29
2023-10-29T14:47:27.008Z,-4.51
2023-10-29T14:50:30.362Z,-4.68
2023-10-29T14:53:33.977Z,-4.75
2023-10-29T14:56:37.265Z,-4.89
2023-10-29T14:59:40.475Z,-4.94
2023-10-29T15:02:43.867Z,-5.03
2023-10-29T15:05:47.214Z,-5.10
2023-10-29T15:08:51.818Z,-5.24
2023-10-29T15:11:59.328Z,-5.37
2023-10-29T15:15:04.541Z,-5.44
2023-10-29T15:18:13.154Z,-5.49
2023-10-29T15:21:18.134Z,-5.56
2023-10-29T15:24:21.416Z,-5.68
2023-10-29T15:27:26.160Z,-5.75
2023-10-29T15:30:30.937Z,-5.79
2023-10-29T15:33:34.181Z,-5.97
2023-10-29T15:36:37.359Z,-6.08
2023-10-29T15:39:40.649Z,-6.11
2023-10-29T15:42:43.890Z,-6.20
2023-10-29T15:45:47.140Z,-6.29
2023-10-29T15:48:50.613Z,-6.38
2023-10-29T15:51:54.055Z,-6.40
2023-10-29T15:54:57.377Z,-6.44
2023-10-29T15:58:00.605Z,-6.55
2023-10-29T16:01:04.144Z,-6.65
2023-10-29T16:04:07.522Z,-6.69
2023-10-29T16:07:10.832Z,-6.74
2023-10-29T16:10:14.178Z,-6.82
2023-10-29T16:13:17.381Z,-6.88
2023-10-29T16:16:21.710Z,-6.91
2023-10-29T16:19:25.081Z,-6.93
2023-10-29T16:22:28.383Z,-6.94
2023-10-29T16:25:31.606Z,-6.93
2023-10-29T16:28:34.852Z,-6.98
2023-10-29T16:31:38.162Z,-7.04
2023-10-29T16:34:42.579Z,-7.05
2023-10-29T16:37:45.860Z,-7.06
2023-10-29T16:40:49.830Z,-7.14
2023-10-29T16:43:55.227Z,-7.18
2023-10-29T16:46:59.088Z,-7.23
2023-10-29T16:50:03.059Z,-7.20
2023-10-29T16:53:06.949Z,-7.20
2023-10-29T16:56:10.496Z,-7.28
2023-10-29T16:59:13.769Z,-7.36
2023-10-29T17:02:17.703Z,-7.40
2023-10-29T17:05:21.085Z,-7.37
2023-10-29T17:08:24.388Z,-7.40
2023-10-29T17:11:31.515Z,-7.47
2023-10-29T17:14:34.710Z,-7.51
2023-10-29T17:17:38.621Z,-7.54
2023-10-29T17:20:41.901Z,-7.48
2023-10-29T17:23:46.145Z,-7.45
2023-10-29T17:26:49.347Z,-7.42
2023-10-29T17:29:52.589Z,-7.48
2023-10-29T17:32:59.124Z,-7.54
2023-10-29T17:36:02.387Z,-7.54
2023-10-29T17:39:05.901Z,-7.55
2023-10-29T17:42:09.554Z,-7.57
2023-10-29T17:45:14.682Z,-7.54
2023-10-29T17:48:17.982Z,-7.46
2023-10-29T17:51:21.382Z,-7.32
2023-10-29T17:54:25.532Z,-7.31
2023-10-29T17:57:28.773Z,-7.33
2023-10-29T18:00:32.101Z,-7.42
2023-10-29T18:03:35.440Z,-7.46
2023-10-29T18:06:38.726Z,-7.46
2023-10-29T18:09:43.456Z,-7.47
2023-10-29T18:12:49.247Z,-7.61
2023-10-29T18:15:52.131Z,-7.67
2023-10-29T18:18:55.480Z,-7.63
2023-10-29T18:22:00.015Z,-7.55
2023-10-29T18:25:02.891Z,-7.44
2023-10-29T18:28:07.642Z,-7.37
2023-10-29T18:31:12.255Z,-7.27
2023-10-29T18:34:15.501Z,-7.15
2023-10-29T18:37:18.696Z,-7.15
2023-10-29T18:40:22.655Z,-7.16
2023-10-29T18:43:25.890Z,-7.21
2023-10-29T18:46:29.432Z,-7.21
2023-10-29T18:49:33.112Z,-7.20
2023-10-29T18:52:36.856Z,-7.16
2023-10-29T18:55:40.077Z,-7.20
2023-10-29T18:58:46.391Z,-7.25
2023-10-29T19:01:50.440Z,-7.24
2023-10-29T19:04:53.908Z,-7.21
2023-10-29T19:07:57.209Z,-7.18
2023-10-29T19:11:04.329Z,-7.19
2023-10-29T19:14:07.609Z,-7.28
2023-10-29T19:17:11.366Z,-7.35
2023-10-29T19:20:15.436Z,-7.36
2023-10-29T19:23:18.616Z,-7.36
2023-10-29T19:26:21.796Z,-7.34
2023-10-29T19:29:26.047Z,-7.35
2023-10-29T19:32:29.306Z,-7.43
2023-10-29T19:35:33.584Z,-7.55
2023-10-29T19:38:36.774Z,-7.66
2023-10-29T19:41:43.451Z,-7.68
2023-10-29T19:44:47.568Z,-7.70
2023-10-29T19:47:51.114Z,-7.77
2023-10-29T19:51:04.293Z,-7.87
2023-10-29T19:54:08.024Z,-8.06
2023-10-29T19:57:12.077Z,-8.25
2023-10-29T20:00:21.739Z,-8.25
2023-10-29T20:03:25.385Z,-8.16
2023-10-29T20:06:28.609Z,-8.11
2023-10-29T20:09:32.482Z,-8.26
2023-10-29T20:12:36.176Z,-8.45
2023-10-29T20:15:39.697Z,-8.50
2023-10-29T20:18:43.019Z,-8.65
2023-10-29T20:21:46.585Z,-8.77
2023-10-29T20:24:55.782Z,-8.84
2023-10-29T20:27:59.089Z,-8.83
2023-10-29T20:31:02.368Z,-8.76
2023-10-29T20:34:05.700Z,-8.75
2023-10-29T20:37:08.998Z,-8.81
2023-10-29T20:40:13.410Z,-8.87
2023-10-29T20:43:17.917Z,-8.80
2023-10-29T20:46:21.695Z,-8.78
2023-10-29T20:49:24.921Z,-8.84
2023-10-29T20:52:28.395Z,-8.80
2023-10-29T20:55:32.376Z,-8.79
2023-10-29T20:58:36.137Z,-8.94
2023-10-29T21:01:39.334Z,-9.07
2023-10-29T21:04:42.501Z,-9.13
2023-10-29T21:07:46.061Z,-9.13
2023-10-29T21:10:49.566Z,-9.15
2023-10-29T21:13:52.877Z,-9.07
2023-10-29T21:16:56.280Z,-8.91
2023-10-29T21:19:59.556Z,-8.81
2023-10-29T21:23:02.863Z,-8.86
2023-10-29T21:26:06.246Z,-8.92
2023-10-29T21:29:10.971Z,-8.99
2023-10-29T21:32:14.185Z,-9.05
2023-10-29T21:35:17.517Z,-9.19
2023-10-29T21:38:20.682Z,-9.25
2023-10-29T21:41:28.810Z,-9.19
2023-10-29T21:44:32.007Z,-9.13
2023-10-29T21:47:39.388Z,-9.10
2023-10-29T21:50:42.758Z,-9.09
2023-10-29T21:53:46.012Z,-9.17
2023-10-29T21:56:49.553Z,-9.12
2023-10-29T21:59:52.770Z,-9.21
2023-10-29T22:02:56.120Z,-9.25
2023-10-29T22:06:13.491Z,-9.39
2023-10-29T22:09:16.888Z,-9.67
2023-10-29T22:12:20.669Z,-9.72
2023-10-29T22:15:26.697Z,-9.79
2023-10-29T22:18:29.960Z,-9.93
2023-10-29T22:21:33.184Z,-10.00
2023-10-29T22:24:36.521Z,-10.14
2023-10-29T22:27:39.815Z,-10.30
2023-10-29T22:30:43.107Z,-10.38
2023-10-29T22:33:48.396Z,-10.24
2023-10-29T22:36:51.639Z,-10.01
2023-10-29T22:39:54.917Z,-9.85
2023-10-29T22:42:58.084Z,-9.85
2023-10-29T22:46:02.196Z,-10.04
2023-10-29T22:49:05.401Z,-10.15
2023-10-29T22:52:08.596Z,-10.07
2023-10-29T22:55:11.886Z,-10.23
2023-10-29T22:58:15.205Z,-10.52
2023-10-29T23:01:18.586Z,-10.71
2023-10-29T23:04:21.935Z,-10.72
2023-10-29T23:07:25.236Z,-10.71
2023-10-29T23:10:30.188Z,-10.78
2023-10-29T23:13:35.738Z,-10.78
2023-10-29T23:16:39.016Z,-10.78
2023-10-29T23:19:42.273Z,-10.74
2023-10-29T23:22:45.528Z,-10.62
2023-10-29T23:25:48.974Z,-10.56
2023-10-29T23:28:52.159Z,-10.58
2023-10-29T23:31:55.396Z,-10.59
2023-10-29T23:34:58.988Z,-10.71
2023-10-29T23:38:03.588Z,-10.75
2023-10-29T23:41:06.872Z,-10.79
2023-10-29T23:44:10.068Z,-10.80
2023-10-29T23:47:13.310Z,-10.69
2023-10-29T23:50:16.816Z,-10.66
2023-10-29T23:53:20.043Z,-10.71
2023-10-29T23:56:23.222Z,-10.68
2023-10-29T23:59:26.514Z,-10.57
